createdAt,value
2022-12-19T00:01:55.730Z,-3.81
2022-12-19T00:04:23.128Z,-3.79
2022-12-19T00:06:50.480Z,-3.69
2022-12-19T00:09:17.899Z,-3.64
2022-12-19T00:11:45.467Z,-3.53
2022-12-19T00:14:12.949Z,-3.53
2022-12-19T00:16:40.417Z,-3.35
2022-12-19T00:19:09.638Z,-3.56
2022-12-19T00:21:37.561Z,-3.56
2022-12-19T00:24:14.536Z,-3.62
2022-12-19T00:26:48.615Z,-3.62
2022-12-19T00:29:16.372Z,-3.61
2022-12-19T00:31:44.921Z,-3.43
2022-12-19T00:34:15.545Z,-3.33
2022-12-19T00:36:43.134Z,-3.17
2022-12-19T00:39:11.680Z,-3.48
2022-12-19T00:41:42.188Z,-3.71
2022-12-19T00:44:32.908Z,-4.06
2022-12-19T00:47:00.302Z,-4.15
2022-12-19T00:49:27.601Z,-3.97
2022-12-19T00:51:57.418Z,-4.05
2022-12-19T00:54:24.905Z,-3.98
2022-12-19T00:56:52.783Z,-4.13
2022-12-19T00:59:26.760Z,-4.12
2022-12-19T01:01:57.595Z,-4.00
2022-12-19T01:04:29.425Z,-4.01
2022-12-19T01:07:01.870Z,-3.99
2022-12-19T01:09:32.953Z,-4.09
2022-12-19T01:12:18.862Z,-4.07
2022-12-19T01:14:48.115Z,-3.94
2022-12-19T01:17:15.499Z,-3.78
2022-12-19T01:19:44.523Z,-3.71
2022-12-19T01:22:13.246Z,-3.50
2022-12-19T01:24:40.824Z,-3.40
2022-12-19T01:27:08.415Z,-3.34
2022-12-19T01:29:45.326Z,-3.28
2022-12-19T01:32:21.518Z,-3.33
2022-12-19T01:34:49.188Z,-3.08
2022-12-19T01:37:16.568Z,-2.97
2022-12-19T01:39:43.979Z,-2.91
2022-12-19T01:42:24.174Z,-3.17
2022-12-19T01:45:13.694Z,-2.87
2022-12-19T01:47:46.198Z,-2.93
2022-12-19T01:51:01.259Z,-2.84
2022-12-19T01:53:48.716Z,-2.82
2022-12-19T01:56:19.900Z,-2.96
2022-12-19T01:58:48.250Z,-3.13
2022-12-19T02:01:16.956Z,-2.82
2022-12-19T02:03:45.317Z,-2.77
2022-12-19T02:06:13.492Z,-2.49
2022-12-19T02:08:42.180Z,-2.48
2022-12-19T02:11:09.550Z,-2.49
2022-12-19T02:13:38.850Z,-2.46
2022-12-19T02:16:16.886Z,-2.56
2022-12-19T02:18:58.728Z,-2.35
2022-12-19T02:21:31.231Z,-2.33
2022-12-19T02:24:25.990Z,-2.46
2022-12-19T02:26:57.570Z,-2.79
2022-12-19T02:29:35.252Z,-2.76
2022-12-19T02:32:11.179Z,-2.65
2022-12-19T02:34:50.569Z,-2.40
2022-12-19T02:37:23.496Z,-2.39
2022-12-19T02:40:00.035Z,-2.29
2022-12-19T02:42:38.384Z,-2.27
2022-12-19T02:45:08.426Z,-2.34
2022-12-19T02:47:37.455Z,-2.20
2022-12-19T02:50:06.245Z,-2.54
2022-12-19T02:52:33.588Z,-2.68
2022-12-19T02:55:11.752Z,-2.63
2022-12-19T02:57:46.603Z,-2.36
2022-12-19T03:00:23.232Z,-2.13
2022-12-19T03:03:01.605Z,-2.06
2022-12-19T03:05:29.458Z,-2.04
2022-12-19T03:08:14.596Z,-1.98
2022-12-19T03:10:53.483Z,-1.80
2022-12-19T03:13:42.581Z,-1.75
2022-12-19T03:16:11.075Z,-1.72
2022-12-19T03:18:39.339Z,-1.92
2022-12-19T03:21:46.044Z,-1.89
2022-12-19T03:24:13.945Z,-2.03
2022-12-19T03:26:56.756Z,-2.10
2022-12-19T03:29:34.337Z,-2.02
2022-12-19T03:32:05.537Z,-1.94
2022-12-19T03:34:36.681Z,-1.79
2022-12-19T03:37:05.596Z,-1.53
2022-12-19T03:39:33.573Z,-1.57
2022-12-19T03:42:20.470Z,-1.52
2022-12-19T03:44:48.785Z,-1.45
2022-12-19T03:47:29.062Z,-1.49
2022-12-19T03:49:56.587Z,-1.45
2022-12-19T03:52:33.490Z,-1.40
2022-12-19T03:55:24.798Z,-1.43
2022-12-19T03:57:59.505Z,-1.83
2022-12-19T04:00:27.295Z,-1.64
2022-12-19T04:02:56.728Z,-1.70
2022-12-19T04:05:27.339Z,-1.67
2022-12-19T04:08:00.803Z,-1.74
2022-12-19T04:10:29.179Z,-1.69
2022-12-19T04:13:05.090Z,-1.47
2022-12-19T04:15:51.799Z,-1.89
2022-12-19T04:18:20.742Z,-1.76
2022-12-19T04:21:00.089Z,-2.04
2022-12-19T04:23:40.431Z,-2.03
2022-12-19T04:26:08.501Z,-2.11
2022-12-19T04:28:44.846Z,-1.93
2022-12-19T04:31:14.664Z,-1.77
2022-12-19T04:33:42.327Z,-1.67
2022-12-19T04:36:10.415Z,-1.53
2022-12-19T04:38:37.990Z,-1.41
2022-12-19T04:41:05.642Z,-1.23
2022-12-19T04:43:33.025Z,-1.28
2022-12-19T04:46:00.893Z,-1.24
2022-12-19T04:48:28.590Z,-1.17
2022-12-19T04:50:56.412Z,-1.16
2022-12-19T04:53:23.822Z,-1.10
2022-12-19T04:55:51.207Z,-1.10
2022-12-19T04:58:21.835Z,-1.10
2022-12-19T05:00:49.452Z,-1.13
2022-12-19T05:03:16.903Z,-1.18
2022-12-19T05:05:44.420Z,-1.08
2022-12-19T05:08:11.812Z,-1.06
2022-12-19T05:10:39.398Z,-1.06
2022-12-19T05:13:07.662Z,-0.93
2022-12-19T05:15:35.038Z,-0.91
2022-12-19T05:18:02.381Z,-0.98
2022-12-19T05:20:29.750Z,-1.02
2022-12-19T05:22:57.121Z,-1.10
2022-12-19T05:25:24.438Z,-1.02
2022-12-19T05:27:51.792Z,-0.99
2022-12-19T05:30:19.222Z,-1.22
2022-12-19T05:32:46.605Z,-1.31
2022-12-19T05:35:14.051Z,-1.37
2022-12-19T05:37:41.393Z,-1.21
2022-12-19T05:40:09.325Z,-1.19
2022-12-19T05:42:36.675Z,-1.15
2022-12-19T05:45:04.398Z,-1.02
2022-12-19T05:47:32.183Z,-0.92
2022-12-19T05:49:59.575Z,-0.70
2022-12-19T05:52:26.890Z,-0.68
2022-12-19T05:54:54.491Z,-0.61
2022-12-19T05:57:21.796Z,-0.73
2022-12-19T05:59:49.166Z,-0.67
2022-12-19T06:02:16.711Z,-1.00
2022-12-19T06:04:44.183Z,-1.01
2022-12-19T06:07:13.451Z,-0.90
2022-12-19T06:09:42.679Z,-0.77
2022-12-19T06:12:10.025Z,-0.73
2022-12-19T06:14:37.366Z,-0.77
2022-12-19T06:17:04.730Z,-0.68
2022-12-19T06:19:32.092Z,-0.77
2022-12-19T06:21:59.476Z,-0.67
2022-12-19T06:24:26.944Z,-0.60
2022-12-19T06:26:54.317Z,-0.68
2022-12-19T06:29:21.669Z,-0.60
2022-12-19T06:31:49.033Z,-0.77
2022-12-19T06:34:39.484Z,-0.59
2022-12-19T06:37:07.967Z,-0.59
2022-12-19T06:39:35.886Z,-0.44
2022-12-19T06:42:21.861Z,-0.40
2022-12-19T06:44:52.741Z,-0.42
2022-12-19T06:47:21.308Z,-0.37
2022-12-19T06:49:49.570Z,-0.15
2022-12-19T06:52:17.881Z,-0.06
2022-12-19T06:54:45.233Z,-0.12
2022-12-19T06:57:12.543Z,-0.09
2022-12-19T06:59:39.869Z,-0.07
2022-12-19T07:02:21.120Z,-0.06
2022-12-19T07:04:52.535Z,-0.09
2022-12-19T07:07:20.158Z,-0.04
2022-12-19T07:09:47.733Z,-0.03
2022-12-19T07:12:15.094Z,-0.09
2022-12-19T07:14:42.453Z,-0.05
2022-12-19T07:17:10.018Z,-0.20
2022-12-19T07:19:38.248Z,-0.16
2022-12-19T07:22:06.390Z,-0.12
2022-12-19T07:24:35.804Z,-0.04
2022-12-19T07:27:03.552Z,0.07
2022-12-19T07:29:30.945Z,0.00
2022-12-19T07:31:58.359Z,0.01
2022-12-19T07:34:25.814Z,0.08
2022-12-19T07:36:53.282Z,0.16
2022-12-19T07:39:21.920Z,0.15
2022-12-19T07:41:49.426Z,0.19
2022-12-19T07:44:30.079Z,0.20
2022-12-19T07:46:57.586Z,0.20
2022-12-19T07:49:25.055Z,0.18
2022-12-19T07:51:52.416Z,0.30
2022-12-19T07:54:19.831Z,0.37
2022-12-19T07:56:47.207Z,0.06
2022-12-19T07:59:14.608Z,0.07
2022-12-19T08:01:42.056Z,-0.26
2022-12-19T08:04:09.578Z,-0.36
2022-12-19T08:06:41.121Z,-0.08
2022-12-19T08:09:08.981Z,0.04
2022-12-19T08:11:36.413Z,0.25
2022-12-19T08:14:03.881Z,0.38
2022-12-19T08:16:31.323Z,0.48
2022-12-19T08:18:58.704Z,0.62
2022-12-19T08:21:26.235Z,0.69
2022-12-19T08:23:53.900Z,0.78
2022-12-19T08:26:25.445Z,0.88
2022-12-19T08:28:55.205Z,0.95
2022-12-19T08:31:25.046Z,0.94
2022-12-19T08:33:53.918Z,0.98
2022-12-19T08:36:21.418Z,1.18
2022-12-19T08:38:49.588Z,1.27
2022-12-19T08:41:17.736Z,1.34
2022-12-19T08:43:49.981Z,1.43
2022-12-19T08:46:18.538Z,1.54
2022-12-19T08:48:46.274Z,1.60
2022-12-19T08:51:14.627Z,1.67
2022-12-19T08:53:43.205Z,1.80
2022-12-19T08:56:30.792Z,1.85
2022-12-19T08:58:58.186Z,1.74
2022-12-19T09:01:25.973Z,1.88
2022-12-19T09:04:18.676Z,1.80
2022-12-19T09:06:40.797Z,1.04
2022-12-19T09:09:08.207Z,0.82
2022-12-19T09:11:36.180Z,0.73
2022-12-19T09:14:13.995Z,0.74
2022-12-19T09:16:43.086Z,0.84
2022-12-19T09:19:15.429Z,0.87
2022-12-19T09:21:43.324Z,1.17
2022-12-19T09:24:11.372Z,1.57
2022-12-19T09:26:39.409Z,1.82
2022-12-19T09:29:19.870Z,2.03
2022-12-19T09:31:47.677Z,2.16
2022-12-19T09:34:17.815Z,2.19
2022-12-19T09:36:45.282Z,2.32
2022-12-19T09:39:12.731Z,2.37
2022-12-19T09:41:58.967Z,2.49
2022-12-19T09:45:05.879Z,2.55
2022-12-19T09:47:35.178Z,2.55
2022-12-19T09:50:03.157Z,2.60
2022-12-19T09:52:33.804Z,2.65
2022-12-19T09:55:40.668Z,2.78
2022-12-19T09:58:29.039Z,2.90
2022-12-19T10:00:59.987Z,2.92
2022-12-19T10:03:32.262Z,2.83
2022-12-19T10:07:11.271Z,2.92
2022-12-19T10:09:31.666Z,3.22
2022-12-19T10:12:42.260Z,3.45
2022-12-19T10:15:11.981Z,3.61
2022-12-19T10:18:24.314Z,3.72
2022-12-19T10:21:03.107Z,3.86
2022-12-19T10:23:39.605Z,3.99
2022-12-19T10:26:18.637Z,4.02
2022-12-19T10:28:58.032Z,4.05
2022-12-19T10:31:37.112Z,4.13
2022-12-19T10:34:17.496Z,4.30
2022-12-19T10:39:59.828Z,4.25
2022-12-19T10:42:41.517Z,4.08
2022-12-19T10:45:19.150Z,4.16
2022-12-19T10:47:56.933Z,4.28
2022-12-19T10:50:27.241Z,4.31
2022-12-19T10:52:57.369Z,4.45
2022-12-19T10:55:34.595Z,4.94
2022-12-19T10:58:27.518Z,5.81
2022-12-19T11:01:00.674Z,6.17
2022-12-19T11:03:28.461Z,6.20
2022-12-19T11:05:58.552Z,6.25
2022-12-19T11:08:33.254Z,6.26
2022-12-19T11:13:22.274Z,6.32
2022-12-19T11:15:46.632Z,6.52
2022-12-19T11:21:09.154Z,6.24
2022-12-19T11:29:18.575Z,6.63
2022-12-19T11:30:06.587Z,7.69
2022-12-19T11:30:41.366Z,6.53
2022-12-19T11:30:46.767Z,7.21
2022-12-19T11:32:33.991Z,8.15
2022-12-19T11:34:16.103Z,8.39
2022-12-19T11:37:22.846Z,8.77
2022-12-19T11:40:04.403Z,8.34
2022-12-19T11:43:04.419Z,8.66
2022-12-19T11:45:58.557Z,8.90
2022-12-19T11:48:47.114Z,8.63
2022-12-19T11:51:44.848Z,8.47
2022-12-19T11:54:20.269Z,7.79
2022-12-19T11:56:47.775Z,8.01
2022-12-19T11:59:36.813Z,8.09
2022-12-19T12:02:06.948Z,7.97
2022-12-19T12:04:43.601Z,7.81
2022-12-19T12:07:26.707Z,7.64
2022-12-19T12:15:34.583Z,7.60
2022-12-19T12:22:21.852Z,7.39
2022-12-19T12:31:02.483Z,7.12
2022-12-19T12:31:13.060Z,6.96
2022-12-19T12:31:40.620Z,6.96
2022-12-19T12:32:02.522Z,6.70
2022-12-19T12:32:03.521Z,6.85
2022-12-19T12:35:50.922Z,6.72
2022-12-19T12:38:00.430Z,6.61
2022-12-19T12:38:29.123Z,6.26
2022-12-19T12:41:02.970Z,6.52
2022-12-19T12:44:01.596Z,6.80
2022-12-19T12:46:40.705Z,7.13
2022-12-19T12:49:22.753Z,7.44
2022-12-19T12:51:50.420Z,7.61
2022-12-19T12:54:17.982Z,7.83
2022-12-19T12:56:46.558Z,8.23
2022-12-19T12:59:28.196Z,7.95
2022-12-19T13:02:01.705Z,7.90
2022-12-19T13:04:35.327Z,7.84
2022-12-19T13:07:04.546Z,7.68
2022-12-19T13:09:35.358Z,7.22
2022-12-19T13:12:43.155Z,7.14
2022-12-19T13:15:28.678Z,6.98
2022-12-19T13:17:55.950Z,6.96
2022-12-19T13:20:29.030Z,7.10
2022-12-19T13:22:59.249Z,7.46
2022-12-19T13:25:36.664Z,7.68
2022-12-19T13:28:04.039Z,7.79
2022-12-19T13:30:46.699Z,7.86
2022-12-19T13:33:20.331Z,7.80
2022-12-19T13:39:51.892Z,7.73
2022-12-19T13:39:59.623Z,7.57
2022-12-19T13:42:00.355Z,7.52
2022-12-19T13:44:27.834Z,7.36
2022-12-19T13:46:56.060Z,7.28
2022-12-19T13:49:33.232Z,7.06
2022-12-19T13:52:04.550Z,6.84
2022-12-19T13:54:37.114Z,6.60
2022-12-19T13:57:24.190Z,6.38
2022-12-19T13:59:59.800Z,6.19
2022-12-19T14:02:43.799Z,6.07
2022-12-19T14:05:34.138Z,5.98
2022-12-19T14:08:21.847Z,5.73
2022-12-19T14:11:34.962Z,5.67
2022-12-19T14:14:10.349Z,5.55
2022-12-19T14:16:45.781Z,5.48
2022-12-19T14:19:22.567Z,5.46
2022-12-19T14:22:05.492Z,5.47
2022-12-19T14:24:37.425Z,5.35
2022-12-19T14:28:20.445Z,5.22
2022-12-19T14:30:31.107Z,5.26
2022-12-19T14:33:46.159Z,4.97
2022-12-19T14:36:10.007Z,4.90
2022-12-19T14:39:27.648Z,4.67
2022-12-19T14:42:02.487Z,4.71
2022-12-19T14:52:34.153Z,4.52
2022-12-19T14:54:12.348Z,4.48
2022-12-19T14:54:12.348Z,4.41
2022-12-19T14:54:30.493Z,4.42
2022-12-19T14:59:01.026Z,4.07
2022-12-19T15:01:32.003Z,3.89
2022-12-19T15:04:50.710Z,4.13
2022-12-19T15:07:08.676Z,4.03
2022-12-19T15:11:08.583Z,4.05
2022-12-19T15:14:56.212Z,4.15
2022-12-19T15:16:31.937Z,4.08
2022-12-19T15:19:01.381Z,4.30
2022-12-19T15:21:30.300Z,4.87
2022-12-19T15:23:57.945Z,4.88
2022-12-19T15:26:35.639Z,5.36
2022-12-19T15:29:06.983Z,5.14
2022-12-19T15:31:42.975Z,4.97
2022-12-19T15:34:44.764Z,4.84
2022-12-19T15:37:14.192Z,4.48
2022-12-19T15:39:42.146Z,3.80
2022-12-19T15:42:21.855Z,3.13
2022-12-19T15:44:50.831Z,2.93
2022-12-19T15:47:30.355Z,3.04
2022-12-19T15:50:01.861Z,3.15
2022-12-19T15:52:29.477Z,3.09
2022-12-19T15:54:57.479Z,2.97
2022-12-19T15:57:24.827Z,2.90
2022-12-19T15:59:52.640Z,2.97
2022-12-19T16:02:22.894Z,2.92
2022-12-19T16:04:51.486Z,2.85
2022-12-19T16:07:21.200Z,2.65
2022-12-19T16:09:49.624Z,2.49
2022-12-19T16:12:23.752Z,2.59
2022-12-19T16:14:57.211Z,2.67
2022-12-19T16:17:25.644Z,2.62
2022-12-19T16:19:53.071Z,2.54
2022-12-19T16:22:25.497Z,2.49
2022-12-19T16:24:54.111Z,2.41
2022-12-19T16:27:26.310Z,2.38
2022-12-19T16:29:54.799Z,2.25
2022-12-19T16:32:24.318Z,2.03
2022-12-19T16:34:52.934Z,2.09
2022-12-19T16:37:20.463Z,1.86
2022-12-19T16:39:47.797Z,1.82
2022-12-19T16:42:18.878Z,1.71
2022-12-19T16:44:47.851Z,1.73
2022-12-19T16:47:17.648Z,1.54
2022-12-19T16:49:45.669Z,1.52
2022-12-19T16:52:13.344Z,1.63
2022-12-19T16:54:40.701Z,1.74
2022-12-19T16:57:20.148Z,1.79
2022-12-19T16:59:47.681Z,1.89
2022-12-19T17:02:27.225Z,1.89
2022-12-19T17:04:54.713Z,1.83
2022-12-19T17:07:22.041Z,1.53
2022-12-19T17:09:49.408Z,1.51
2022-12-19T17:12:18.319Z,1.21
2022-12-19T17:14:45.801Z,1.19
2022-12-19T17:17:16.830Z,1.17
2022-12-19T17:19:45.523Z,1.14
2022-12-19T17:22:14.819Z,1.22
2022-12-19T17:24:42.301Z,1.31
2022-12-19T17:27:09.638Z,1.48
2022-12-19T17:29:37.083Z,1.52
2022-12-19T17:32:06.797Z,1.58
2022-12-19T17:34:34.841Z,1.52
2022-12-19T17:37:04.575Z,1.31
2022-12-19T17:39:34.096Z,1.23
2022-12-19T17:42:14.720Z,1.10
2022-12-19T17:44:42.098Z,0.92
2022-12-19T17:47:17.289Z,0.94
2022-12-19T17:49:44.751Z,0.90
2022-12-19T17:52:18.521Z,0.96
2022-12-19T17:54:46.270Z,0.98
2022-12-19T17:57:18.399Z,0.88
2022-12-19T17:59:48.792Z,1.09
2022-12-19T18:02:24.790Z,1.19
2022-12-19T18:04:52.932Z,1.20
2022-12-19T18:07:20.536Z,1.30
2022-12-19T18:09:48.005Z,1.01
2022-12-19T18:12:15.417Z,1.05
2022-12-19T18:14:42.868Z,0.85
2022-12-19T18:17:16.153Z,0.71
2022-12-19T18:19:43.706Z,0.93
2022-12-19T18:22:14.619Z,0.68
2022-12-19T18:24:42.176Z,0.57
2022-12-19T18:27:10.387Z,0.51
2022-12-19T18:29:37.738Z,0.59
2022-12-19T18:32:05.309Z,0.57
2022-12-19T18:34:34.429Z,0.61
2022-12-19T18:37:03.759Z,0.70
2022-12-19T18:39:32.077Z,0.72
2022-12-19T18:41:59.733Z,0.87
2022-12-19T18:44:27.136Z,0.81
2022-12-19T18:46:54.577Z,0.83
2022-12-19T18:49:22.975Z,0.78
2022-12-19T18:51:50.411Z,0.80
2022-12-19T18:54:21.594Z,0.50
2022-12-19T18:56:49.068Z,0.57
2022-12-19T18:59:16.530Z,0.79
2022-12-19T19:01:46.947Z,0.84
2022-12-19T19:04:17.806Z,0.90
2022-12-19T19:06:51.706Z,0.76
2022-12-19T19:09:20.814Z,0.85
2022-12-19T19:12:11.084Z,0.68
2022-12-19T19:14:39.287Z,0.79
2022-12-19T19:17:07.284Z,0.88
2022-12-19T19:19:34.658Z,0.70
2022-12-19T19:22:02.028Z,0.64
2022-12-19T19:24:29.430Z,0.60
2022-12-19T19:26:56.812Z,0.59
2022-12-19T19:29:24.248Z,0.65
2022-12-19T19:31:52.233Z,0.54
2022-12-19T19:34:24.169Z,0.54
2022-12-19T19:36:54.664Z,0.48
2022-12-19T19:39:23.103Z,0.60
2022-12-19T19:41:50.640Z,0.70
2022-12-19T19:44:18.010Z,0.70
2022-12-19T19:46:46.131Z,0.57
2022-12-19T19:49:13.601Z,0.39
2022-12-19T19:51:41.152Z,0.40
2022-12-19T19:54:08.505Z,0.33
2022-12-19T19:56:35.957Z,0.20
2022-12-19T19:59:03.422Z,0.31
2022-12-19T20:01:30.839Z,0.46
2022-12-19T20:03:58.411Z,0.53
2022-12-19T20:06:26.432Z,0.48
2022-12-19T20:08:53.849Z,0.39
2022-12-19T20:11:21.594Z,0.36
2022-12-19T20:13:48.993Z,0.43
2022-12-19T20:16:18.795Z,0.37
2022-12-19T20:18:53.437Z,0.33
2022-12-19T20:21:21.331Z,0.19
2022-12-19T20:23:49.170Z,-0.01
2022-12-19T20:26:17.694Z,-0.04
2022-12-19T20:28:49.611Z,-0.12
2022-12-19T20:31:22.247Z,-0.14
2022-12-19T20:33:50.498Z,-0.05
2022-12-19T20:36:18.229Z,0.09
2022-12-19T20:38:46.280Z,0.23
2022-12-19T20:41:14.099Z,0.31
2022-12-19T20:43:42.028Z,0.17
2022-12-19T20:46:19.961Z,0.08
2022-12-19T20:48:48.943Z,0.31
2022-12-19T20:51:17.885Z,0.39
2022-12-19T20:53:45.839Z,0.61
2022-12-19T20:56:15.907Z,0.62
2022-12-19T20:58:43.495Z,0.66
2022-12-19T21:01:16.474Z,0.73
2022-12-19T21:03:46.653Z,0.84
2022-12-19T21:06:18.686Z,1.03
2022-12-19T21:08:46.383Z,1.06
2022-12-19T21:11:15.607Z,1.11
2022-12-19T21:13:43.640Z,0.98
2022-12-19T21:16:14.941Z,0.78
2022-12-19T21:18:43.605Z,0.79
2022-12-19T21:21:17.832Z,0.63
2022-12-19T21:23:45.584Z,0.36
2022-12-19T21:26:13.107Z,0.27
2022-12-19T21:28:41.275Z,0.34
2022-12-19T21:31:18.822Z,0.32
2022-12-19T21:33:46.549Z,0.19
2022-12-19T21:36:19.087Z,0.12
2022-12-19T21:38:48.331Z,0.15
2022-12-19T21:41:19.012Z,0.19
2022-12-19T21:43:53.679Z,0.32
2022-12-19T21:46:23.437Z,0.60
2022-12-19T21:48:52.770Z,0.77
2022-12-19T21:51:22.244Z,0.88
2022-12-19T21:53:52.735Z,0.99
2022-12-19T21:56:34.668Z,1.11
2022-12-19T21:59:04.337Z,1.19
2022-12-19T22:01:32.465Z,1.27
2022-12-19T22:04:10.137Z,1.30
2022-12-19T22:06:38.794Z,1.31
2022-12-19T22:09:08.859Z,1.28
2022-12-19T22:11:37.180Z,1.32
2022-12-19T22:14:05.539Z,1.23
2022-12-19T22:16:33.760Z,1.08
2022-12-19T22:19:01.405Z,1.05
2022-12-19T22:21:29.652Z,1.18
2022-12-19T22:23:58.806Z,1.13
2022-12-19T22:26:27.925Z,1.20
2022-12-19T22:28:56.583Z,1.22
2022-12-19T22:31:29.399Z,1.06
2022-12-19T22:33:58.875Z,0.97
2022-12-19T22:36:28.876Z,0.97
2022-12-19T22:38:57.917Z,0.82
2022-12-19T22:41:25.851Z,0.87
2022-12-19T22:43:54.166Z,0.89
2022-12-19T22:46:27.265Z,0.99
2022-12-19T22:48:57.604Z,0.95
2022-12-19T22:51:25.475Z,0.90
2022-12-19T22:53:52.960Z,1.14
2022-12-19T22:56:26.728Z,1.06
2022-12-19T22:58:55.845Z,1.10
2022-12-19T23:01:26.010Z,1.11
2022-12-19T23:03:55.699Z,0.93
2022-12-19T23:06:23.968Z,0.87
2022-12-19T23:08:51.413Z,0.90
2022-12-19T23:11:21.770Z,0.79
2022-12-19T23:13:49.493Z,0.66
2022-12-19T23:16:17.427Z,0.59
2022-12-19T23:18:45.127Z,0.62
2022-12-19T23:21:18.436Z,0.71
2022-12-19T23:23:47.410Z,0.51
2022-12-19T23:26:35.901Z,0.63
2022-12-19T23:29:08.785Z,0.91
2022-12-19T23:31:38.908Z,1.12
2022-12-19T23:34:06.328Z,1.06
2022-12-19T23:39:21.081Z,1.20
2022-12-19T23:41:48.424Z,1.19
2022-12-19T23:44:15.921Z,1.35
2022-12-19T23:46:43.286Z,1.40
2022-12-19T23:49:10.619Z,1.44
2022-12-19T23:51:38.134Z,1.46
2022-12-19T23:54:05.641Z,1.52
2022-12-19T23:56:33.328Z,1.54
2022-12-19T23:59:01.371Z,1.44
